sensor_id;sensor_type;location;lat;lon;timestamp;temperature;humidity
9919;DHT22;4998;51.024;13.828;2022-08-01T00:02:19;26.70;48.90
9919;DHT22;4998;51.024;13.828;2022-08-01T00:04:46;26.60;49.10
9919;DHT22;4998;51.024;13.828;2022-08-01T00:07:13;26.60;49.20
9919;DHT22;4998;51.024;13.828;2022-08-01T00:09:40;26.60;49.20
9919;DHT22;4998;51.024;13.828;2022-08-01T00:12:07;26.50;49.30
9919;DHT22;4998;51.024;13.828;2022-08-01T00:14:34;26.50;49.40
9919;DHT22;4998;51.024;13.828;2022-08-01T00:17:01;26.50;49.50
9919;DHT22;4998;51.024;13.828;2022-08-01T00:19:29;26.40;49.60
9919;DHT22;4998;51.024;13.828;2022-08-01T00:21:56;26.40;49.80
9919;DHT22;4998;51.024;13.828;2022-08-01T00:24:23;26.40;49.80
9919;DHT22;4998;51.024;13.828;2022-08-01T00:26:50;26.40;49.90
9919;DHT22;4998;51.024;13.828;2022-08-01T00:29:17;26.40;50.00
9919;DHT22;4998;51.024;13.828;2022-08-01T00:31:44;26.40;50.10
9919;DHT22;4998;51.024;13.828;2022-08-01T00:34:11;26.40;50.40
9919;DHT22;4998;51.024;13.828;2022-08-01T00:36:39;26.30;50.40
9919;DHT22;4998;51.024;13.828;2022-08-01T00:39:06;26.30;50.60
9919;DHT22;4998;51.024;13.828;2022-08-01T00:41:33;26.30;50.60
9919;DHT22;4998;51.024;13.828;2022-08-01T00:44:03;26.20;50.70
9919;DHT22;4998;51.024;13.828;2022-08-01T00:46:30;26.20;50.90
9919;DHT22;4998;51.024;13.828;2022-08-01T00:48:57;26.20;50.90
9919;DHT22;4998;51.024;13.828;2022-08-01T00:51:24;26.20;51.10
9919;DHT22;4998;51.024;13.828;2022-08-01T00:53:53;26.10;51.10
9919;DHT22;4998;51.024;13.828;2022-08-01T00:56:23;26.10;51.30
9919;DHT22;4998;51.024;13.828;2022-08-01T00:58:51;26.10;51.20
9919;DHT22;4998;51.024;13.828;2022-08-01T01:01:18;26.10;51.30
9919;DHT22;4998;51.024;13.828;2022-08-01T01:03:46;26.00;51.40
9919;DHT22;4998;51.024;13.828;2022-08-01T01:06:26;26.00;51.50
9919;DHT22;4998;51.024;13.828;2022-08-01T01:09:15;25.90;51.80
9919;DHT22;4998;51.024;13.828;2022-08-01T01:11:48;25.90;51.80
9919;DHT22;4998;51.024;13.828;2022-08-01T01:14:23;25.80;51.90
9919;DHT22;4998;51.024;13.828;2022-08-01T01:16:54;25.80;51.90
9919;DHT22;4998;51.024;13.828;2022-08-01T01:19:24;25.70;51.80
9919;DHT22;4998;51.024;13.828;2022-08-01T01:22:21;25.70;52.10
9919;DHT22;4998;51.024;13.828;2022-08-01T01:24:58;25.60;52.20
9919;DHT22;4998;51.024;13.828;2022-08-01T01:27:47;25.60;52.30
9919;DHT22;4998;51.024;13.828;2022-08-01T01:30:16;25.50;52.50
9919;DHT22;4998;51.024;13.828;2022-08-01T01:32:46;25.50;52.50
9919;DHT22;4998;51.024;13.828;2022-08-01T01:35:19;25.40;52.50
9919;DHT22;4998;51.024;13.828;2022-08-01T01:37:47;25.40;52.80
9919;DHT22;4998;51.024;13.828;2022-08-01T01:40:17;25.40;52.90
9919;DHT22;4998;51.024;13.828;2022-08-01T01:42:44;25.30;53.00
9919;DHT22;4998;51.024;13.828;2022-08-01T01:45:13;25.30;53.00
9919;DHT22;4998;51.024;13.828;2022-08-01T01:47:42;25.20;53.00
9919;DHT22;4998;51.024;13.828;2022-08-01T01:50:11;25.20;53.30
9919;DHT22;4998;51.024;13.828;2022-08-01T01:52:40;25.10;53.20
9919;DHT22;4998;51.024;13.828;2022-08-01T01:55:09;25.10;53.40
9919;DHT22;4998;51.024;13.828;2022-08-01T01:57:39;25.10;53.50
9919;DHT22;4998;51.024;13.828;2022-08-01T02:00:08;25.00;53.60
9919;DHT22;4998;51.024;13.828;2022-08-01T02:02:36;25.00;53.60
9919;DHT22;4998;51.024;13.828;2022-08-01T02:05:05;25.00;53.80
9919;DHT22;4998;51.024;13.828;2022-08-01T02:07:34;25.00;53.90
9919;DHT22;4998;51.024;13.828;2022-08-01T02:10:03;24.90;53.80
9919;DHT22;4998;51.024;13.828;2022-08-01T02:12:34;24.90;54.00
9919;DHT22;4998;51.024;13.828;2022-08-01T02:15:03;24.90;54.00
9919;DHT22;4998;51.024;13.828;2022-08-01T02:17:31;24.90;54.10
9919;DHT22;4998;51.024;13.828;2022-08-01T02:19:58;24.90;54.20
9919;DHT22;4998;51.024;13.828;2022-08-01T02:22:31;24.90;54.20
9919;DHT22;4998;51.024;13.828;2022-08-01T02:25:03;24.90;54.40
9919;DHT22;4998;51.024;13.828;2022-08-01T02:27:34;24.90;54.40
9919;DHT22;4998;51.024;13.828;2022-08-01T02:30:05;24.90;54.50
9919;DHT22;4998;51.024;13.828;2022-08-01T02:32:38;24.90;54.50
9919;DHT22;4998;51.024;13.828;2022-08-01T02:35:07;24.90;54.60
9919;DHT22;4998;51.024;13.828;2022-08-01T02:37:38;24.90;54.70
9919;DHT22;4998;51.024;13.828;2022-08-01T02:40:06;24.90;54.80
9919;DHT22;4998;51.024;13.828;2022-08-01T02:42:35;24.90;54.80
9919;DHT22;4998;51.024;13.828;2022-08-01T02:45:05;25.00;54.90
9919;DHT22;4998;51.024;13.828;2022-08-01T02:47:36;25.00;54.80
9919;DHT22;4998;51.024;13.828;2022-08-01T02:50:05;25.00;54.80
9919;DHT22;4998;51.024;13.828;2022-08-01T02:52:36;25.00;54.90
9919;DHT22;4998;51.024;13.828;2022-08-01T02:55:05;25.00;54.90
9919;DHT22;4998;51.024;13.828;2022-08-01T02:57:33;25.00;54.90
9919;DHT22;4998;51.024;13.828;2022-08-01T03:00:02;25.00;54.90
9919;DHT22;4998;51.024;13.828;2022-08-01T03:02:30;25.00;55.00
9919;DHT22;4998;51.024;13.828;2022-08-01T03:05:00;25.00;55.00
9919;DHT22;4998;51.024;13.828;2022-08-01T03:07:28;25.00;55.10
9919;DHT22;4998;51.024;13.828;2022-08-01T03:09:57;25.00;55.20
9919;DHT22;4998;51.024;13.828;2022-08-01T03:12:27;25.10;55.40
9919;DHT22;4998;51.024;13.828;2022-08-01T03:14:56;25.00;55.50
9919;DHT22;4998;51.024;13.828;2022-08-01T03:17:27;25.00;55.60
9919;DHT22;4998;51.024;13.828;2022-08-01T03:19:56;25.00;55.80
9919;DHT22;4998;51.024;13.828;2022-08-01T03:22:25;25.20;55.80
9919;DHT22;4998;51.024;13.828;2022-08-01T03:24:53;25.00;55.60
9919;DHT22;4998;51.024;13.828;2022-08-01T03:27:25;25.00;55.60
9919;DHT22;4998;51.024;13.828;2022-08-01T03:29:55;25.00;55.70
9919;DHT22;4998;51.024;13.828;2022-08-01T03:32:23;24.90;55.90
9919;DHT22;4998;51.024;13.828;2022-08-01T03:34:51;24.90;55.80
9919;DHT22;4998;51.024;13.828;2022-08-01T03:37:23;24.90;55.70
9919;DHT22;4998;51.024;13.828;2022-08-01T03:39:54;24.80;56.00
9919;DHT22;4998;51.024;13.828;2022-08-01T03:42:31;24.80;56.00
9919;DHT22;4998;51.024;13.828;2022-08-01T03:45:02;24.80;56.30
9919;DHT22;4998;51.024;13.828;2022-08-01T03:47:31;24.80;56.30
9919;DHT22;4998;51.024;13.828;2022-08-01T03:50:02;24.70;56.40
9919;DHT22;4998;51.024;13.828;2022-08-01T03:52:30;24.70;56.50
9919;DHT22;4998;51.024;13.828;2022-08-01T03:55:01;24.60;56.40
9919;DHT22;4998;51.024;13.828;2022-08-01T03:57:30;24.60;56.50
9919;DHT22;4998;51.024;13.828;2022-08-01T03:59:58;24.60;56.70
9919;DHT22;4998;51.024;13.828;2022-08-01T04:02:26;24.60;56.80
9919;DHT22;4998;51.024;13.828;2022-08-01T04:04:54;24.60;56.70
9919;DHT22;4998;51.024;13.828;2022-08-01T04:07:22;24.60;56.80
9919;DHT22;4998;51.024;13.828;2022-08-01T04:09:50;24.60;56.90
9919;DHT22;4998;51.024;13.828;2022-08-01T04:12:17;24.60;57.00
9919;DHT22;4998;51.024;13.828;2022-08-01T04:14:46;24.60;57.00
9919;DHT22;4998;51.024;13.828;2022-08-01T04:17:14;24.60;57.20
9919;DHT22;4998;51.024;13.828;2022-08-01T04:19:41;24.60;57.20
9919;DHT22;4998;51.024;13.828;2022-08-01T04:22:09;24.60;57.30
9919;DHT22;4998;51.024;13.828;2022-08-01T04:24:37;24.60;57.40
9919;DHT22;4998;51.024;13.828;2022-08-01T04:27:08;24.70;57.50
9919;DHT22;4998;51.024;13.828;2022-08-01T04:29:36;24.70;57.60
9919;DHT22;4998;51.024;13.828;2022-08-01T04:32:07;24.70;57.60
9919;DHT22;4998;51.024;13.828;2022-08-01T04:34:37;24.70;57.50
9919;DHT22;4998;51.024;13.828;2022-08-01T04:37:08;24.70;57.50
9919;DHT22;4998;51.024;13.828;2022-08-01T04:39:37;24.80;57.50
9919;DHT22;4998;51.024;13.828;2022-08-01T04:42:06;24.80;57.40
9919;DHT22;4998;51.024;13.828;2022-08-01T04:44:33;24.80;57.40
9919;DHT22;4998;51.024;13.828;2022-08-01T04:47:02;24.80;57.40
9919;DHT22;4998;51.024;13.828;2022-08-01T04:49:32;24.80;57.40
9919;DHT22;4998;51.024;13.828;2022-08-01T04:52:00;24.70;57.40
9919;DHT22;4998;51.024;13.828;2022-08-01T04:54:29;24.80;57.50
9919;DHT22;4998;51.024;13.828;2022-08-01T04:56:58;24.80;57.60
9919;DHT22;4998;51.024;13.828;2022-08-01T04:59:26;24.90;57.60
9919;DHT22;4998;51.024;13.828;2022-08-01T05:02:09;24.90;57.70
9919;DHT22;4998;51.024;13.828;2022-08-01T05:04:38;24.90;57.70
9919;DHT22;4998;51.024;13.828;2022-08-01T05:07:06;24.90;57.80
9919;DHT22;4998;51.024;13.828;2022-08-01T05:09:34;24.90;57.80
9919;DHT22;4998;51.024;13.828;2022-08-01T05:12:03;24.90;57.90
9919;DHT22;4998;51.024;13.828;2022-08-01T05:14:31;24.80;57.90
9919;DHT22;4998;51.024;13.828;2022-08-01T05:16:59;24.90;58.10
9919;DHT22;4998;51.024;13.828;2022-08-01T05:19:28;24.90;58.10
9919;DHT22;4998;51.024;13.828;2022-08-01T05:21:57;24.90;58.20
9919;DHT22;4998;51.024;13.828;2022-08-01T05:24:24;24.90;58.30
9919;DHT22;4998;51.024;13.828;2022-08-01T05:26:51;24.90;58.40
9919;DHT22;4998;51.024;13.828;2022-08-01T05:29:19;24.90;58.50
9919;DHT22;4998;51.024;13.828;2022-08-01T05:31:46;24.90;58.70
9919;DHT22;4998;51.024;13.828;2022-08-01T05:34:13;24.90;58.90
9919;DHT22;4998;51.024;13.828;2022-08-01T05:36:40;25.00;59.10
9919;DHT22;4998;51.024;13.828;2022-08-01T05:39:08;25.00;59.30
9919;DHT22;4998;51.024;13.828;2022-08-01T05:41:35;25.00;59.50
9919;DHT22;4998;51.024;13.828;2022-08-01T05:44:03;25.00;59.60
9919;DHT22;4998;51.024;13.828;2022-08-01T05:46:30;25.00;59.80
9919;DHT22;4998;51.024;13.828;2022-08-01T05:48:57;25.00;60.10
9919;DHT22;4998;51.024;13.828;2022-08-01T05:51:24;25.00;60.60
9919;DHT22;4998;51.024;13.828;2022-08-01T05:53:52;25.00;60.90
9919;DHT22;4998;51.024;13.828;2022-08-01T05:56:20;25.00;61.20
9919;DHT22;4998;51.024;13.828;2022-08-01T05:58:48;25.10;61.60
9919;DHT22;4998;51.024;13.828;2022-08-01T06:01:16;25.20;61.70
9919;DHT22;4998;51.024;13.828;2022-08-01T06:03:43;25.20;61.70
9919;DHT22;4998;51.024;13.828;2022-08-01T06:06:10;25.30;61.90
9919;DHT22;4998;51.024;13.828;2022-08-01T06:08:38;25.40;61.90
9919;DHT22;4998;51.024;13.828;2022-08-01T06:11:05;25.50;61.80
9919;DHT22;4998;51.024;13.828;2022-08-01T06:13:34;25.50;61.70
9919;DHT22;4998;51.024;13.828;2022-08-01T06:16:00;25.60;61.70
9919;DHT22;4998;51.024;13.828;2022-08-01T06:18:27;25.60;61.40
9919;DHT22;4998;51.024;13.828;2022-08-01T06:20:54;25.60;61.40
9919;DHT22;4998;51.024;13.828;2022-08-01T06:23:21;25.60;61.40
9919;DHT22;4998;51.024;13.828;2022-08-01T06:25:51;25.60;61.40
9919;DHT22;4998;51.024;13.828;2022-08-01T06:28:18;25.60;61.50
9919;DHT22;4998;51.024;13.828;2022-08-01T06:30:46;25.60;61.60
9919;DHT22;4998;51.024;13.828;2022-08-01T06:33:13;25.50;61.80
9919;DHT22;4998;51.024;13.828;2022-08-01T06:35:40;25.50;61.90
9919;DHT22;4998;51.024;13.828;2022-08-01T06:38:07;25.50;62.10
9919;DHT22;4998;51.024;13.828;2022-08-01T06:40:34;25.50;62.00
9919;DHT22;4998;51.024;13.828;2022-08-01T06:43:01;25.50;62.00
9919;DHT22;4998;51.024;13.828;2022-08-01T06:45:28;25.40;62.20
9919;DHT22;4998;51.024;13.828;2022-08-01T06:47:56;25.40;62.50
9919;DHT22;4998;51.024;13.828;2022-08-01T06:50:23;25.40;62.80
9919;DHT22;4998;51.024;13.828;2022-08-01T06:52:50;25.40;62.80
9919;DHT22;4998;51.024;13.828;2022-08-01T06:55:17;25.30;63.20
9919;DHT22;4998;51.024;13.828;2022-08-01T06:57:46;25.30;63.10
9919;DHT22;4998;51.024;13.828;2022-08-01T07:00:16;25.30;63.50
9919;DHT22;4998;51.024;13.828;2022-08-01T07:02:51;25.20;63.60
9919;DHT22;4998;51.024;13.828;2022-08-01T07:05:20;25.20;64.00
9919;DHT22;4998;51.024;13.828;2022-08-01T07:07:47;25.20;64.40
9919;DHT22;4998;51.024;13.828;2022-08-01T07:10:14;25.20;64.60
9919;DHT22;4998;51.024;13.828;2022-08-01T07:12:41;25.20;65.30
9919;DHT22;4998;51.024;13.828;2022-08-01T07:15:09;25.20;65.70
9919;DHT22;4998;51.024;13.828;2022-08-01T07:17:37;25.20;66.10
9919;DHT22;4998;51.024;13.828;2022-08-01T07:20:07;25.10;66.90
9919;DHT22;4998;51.024;13.828;2022-08-01T07:22:35;25.00;67.70
9919;DHT22;4998;51.024;13.828;2022-08-01T07:25:04;25.00;68.50
9919;DHT22;4998;51.024;13.828;2022-08-01T07:27:31;24.90;69.00
9919;DHT22;4998;51.024;13.828;2022-08-01T07:29:58;24.80;69.30
9919;DHT22;4998;51.024;13.828;2022-08-01T07:32:26;24.70;70.00
9919;DHT22;4998;51.024;13.828;2022-08-01T07:34:54;24.60;70.90
9919;DHT22;4998;51.024;13.828;2022-08-01T07:37:21;24.50;71.50
9919;DHT22;4998;51.024;13.828;2022-08-01T07:39:50;24.50;72.10
9919;DHT22;4998;51.024;13.828;2022-08-01T07:42:17;24.50;73.10
9919;DHT22;4998;51.024;13.828;2022-08-01T07:44:44;24.40;73.40
9919;DHT22;4998;51.024;13.828;2022-08-01T07:47:11;24.40;73.50
9919;DHT22;4998;51.024;13.828;2022-08-01T07:49:38;24.30;73.90
9919;DHT22;4998;51.024;13.828;2022-08-01T07:52:05;24.30;74.50
9919;DHT22;4998;51.024;13.828;2022-08-01T07:54:33;24.20;75.00
9919;DHT22;4998;51.024;13.828;2022-08-01T07:57:02;24.20;77.00
9919;DHT22;4998;51.024;13.828;2022-08-01T07:59:29;24.20;77.40
9919;DHT22;4998;51.024;13.828;2022-08-01T08:01:57;24.20;78.00
9919;DHT22;4998;51.024;13.828;2022-08-01T08:04:24;24.20;78.40
9919;DHT22;4998;51.024;13.828;2022-08-01T08:06:51;24.20;78.80
9919;DHT22;4998;51.024;13.828;2022-08-01T08:09:19;24.30;79.30
9919;DHT22;4998;51.024;13.828;2022-08-01T08:11:46;24.40;80.10
9919;DHT22;4998;51.024;13.828;2022-08-01T08:14:15;24.50;81.00
9919;DHT22;4998;51.024;13.828;2022-08-01T08:16:42;24.60;81.30
9919;DHT22;4998;51.024;13.828;2022-08-01T08:19:09;24.60;81.10
9919;DHT22;4998;51.024;13.828;2022-08-01T08:21:36;24.70;81.10
9919;DHT22;4998;51.024;13.828;2022-08-01T08:24:03;24.80;81.10
9919;DHT22;4998;51.024;13.828;2022-08-01T08:26:51;24.90;81.60
9919;DHT22;4998;51.024;13.828;2022-08-01T08:29:20;24.90;81.70
9919;DHT22;4998;51.024;13.828;2022-08-01T08:31:47;25.00;82.40
9919;DHT22;4998;51.024;13.828;2022-08-01T08:34:14;25.00;82.20
9919;DHT22;4998;51.024;13.828;2022-08-01T08:36:41;25.10;82.70
9919;DHT22;4998;51.024;13.828;2022-08-01T08:39:08;25.20;84.00
9919;DHT22;4998;51.024;13.828;2022-08-01T08:41:35;25.30;83.50
9919;DHT22;4998;51.024;13.828;2022-08-01T08:44:03;25.40;83.30
9919;DHT22;4998;51.024;13.828;2022-08-01T08:46:33;25.60;83.10
9919;DHT22;4998;51.024;13.828;2022-08-01T08:49:01;25.70;82.90
9919;DHT22;4998;51.024;13.828;2022-08-01T08:51:31;25.80;82.60
9919;DHT22;4998;51.024;13.828;2022-08-01T08:54:00;25.90;82.30
9919;DHT22;4998;51.024;13.828;2022-08-01T08:56:29;26.00;81.50
9919;DHT22;4998;51.024;13.828;2022-08-01T08:59:00;26.10;80.80
9919;DHT22;4998;51.024;13.828;2022-08-01T09:01:27;26.10;80.20
9919;DHT22;4998;51.024;13.828;2022-08-01T09:03:55;26.20;79.70
9919;DHT22;4998;51.024;13.828;2022-08-01T09:06:22;26.20;79.40
9919;DHT22;4998;51.024;13.828;2022-08-01T09:08:49;26.20;79.20
9919;DHT22;4998;51.024;13.828;2022-08-01T09:11:16;26.20;79.10
9919;DHT22;4998;51.024;13.828;2022-08-01T09:14:01;26.20;79.00
9919;DHT22;4998;51.024;13.828;2022-08-01T09:16:31;26.20;79.30
9919;DHT22;4998;51.024;13.828;2022-08-01T09:19:14;26.20;79.60
9919;DHT22;4998;51.024;13.828;2022-08-01T09:21:56;26.20;79.30
9919;DHT22;4998;51.024;13.828;2022-08-01T09:24:25;26.30;79.00
9919;DHT22;4998;51.024;13.828;2022-08-01T09:26:52;26.30;78.90
9919;DHT22;4998;51.024;13.828;2022-08-01T09:29:21;26.40;79.10
9919;DHT22;4998;51.024;13.828;2022-08-01T09:31:49;26.40;78.40
9919;DHT22;4998;51.024;13.828;2022-08-01T09:34:25;26.40;77.60
9919;DHT22;4998;51.024;13.828;2022-08-01T09:36:53;26.40;77.00
9919;DHT22;4998;51.024;13.828;2022-08-01T09:39:23;26.40;77.00
9919;DHT22;4998;51.024;13.828;2022-08-01T09:41:50;26.40;76.80
9919;DHT22;4998;51.024;13.828;2022-08-01T09:44:18;26.40;77.40
9919;DHT22;4998;51.024;13.828;2022-08-01T09:46:50;26.50;77.70
9919;DHT22;4998;51.024;13.828;2022-08-01T09:49:29;26.50;77.20
9919;DHT22;4998;51.024;13.828;2022-08-01T09:51:58;26.60;75.50
9919;DHT22;4998;51.024;13.828;2022-08-01T09:54:30;26.70;75.20
9919;DHT22;4998;51.024;13.828;2022-08-01T09:57:08;26.80;74.90
9919;DHT22;4998;51.024;13.828;2022-08-01T09:59:35;26.80;74.70
9919;DHT22;4998;51.024;13.828;2022-08-01T10:02:05;26.80;74.40
9919;DHT22;4998;51.024;13.828;2022-08-01T10:04:33;26.90;74.40
9919;DHT22;4998;51.024;13.828;2022-08-01T10:07:05;27.00;74.20
9919;DHT22;4998;51.024;13.828;2022-08-01T10:09:34;27.00;73.90
9919;DHT22;4998;51.024;13.828;2022-08-01T10:12:01;26.80;73.60
9919;DHT22;4998;51.024;13.828;2022-08-01T10:14:30;27.10;72.60
9919;DHT22;4998;51.024;13.828;2022-08-01T10:16:59;27.10;72.20
9919;DHT22;4998;51.024;13.828;2022-08-01T10:19:27;27.20;71.60
9919;DHT22;4998;51.024;13.828;2022-08-01T10:21:57;27.20;71.60
9919;DHT22;4998;51.024;13.828;2022-08-01T10:24:26;27.30;71.80
9919;DHT22;4998;51.024;13.828;2022-08-01T10:26:57;27.30;71.70
9919;DHT22;4998;51.024;13.828;2022-08-01T10:29:34;27.40;71.10
9919;DHT22;4998;51.024;13.828;2022-08-01T10:32:04;27.50;70.50
9919;DHT22;4998;51.024;13.828;2022-08-01T10:34:35;27.60;69.30
9919;DHT22;4998;51.024;13.828;2022-08-01T10:37:04;27.60;68.70
9919;DHT22;4998;51.024;13.828;2022-08-01T10:39:32;27.70;68.00
9919;DHT22;4998;51.024;13.828;2022-08-01T10:42:00;27.70;67.70
9919;DHT22;4998;51.024;13.828;2022-08-01T10:44:29;27.70;67.50
9919;DHT22;4998;51.024;13.828;2022-08-01T10:47:01;27.80;67.70
9919;DHT22;4998;51.024;13.828;2022-08-01T10:49:31;27.80;67.30
9919;DHT22;4998;51.024;13.828;2022-08-01T10:52:03;27.80;67.00
9919;DHT22;4998;51.024;13.828;2022-08-01T10:54:38;27.80;66.80
9919;DHT22;4998;51.024;13.828;2022-08-01T10:57:06;27.80;66.70
9919;DHT22;4998;51.024;13.828;2022-08-01T10:59:33;27.80;66.80
9919;DHT22;4998;51.024;13.828;2022-08-01T11:02:06;27.80;66.80
9919;DHT22;4998;51.024;13.828;2022-08-01T11:04:41;27.80;67.40
9919;DHT22;4998;51.024;13.828;2022-08-01T11:07:16;27.80;67.70
9919;DHT22;4998;51.024;13.828;2022-08-01T11:09:45;27.80;67.80
9919;DHT22;4998;51.024;13.828;2022-08-01T11:12:13;27.80;67.40
9919;DHT22;4998;51.024;13.828;2022-08-01T11:15:21;27.80;67.10
9919;DHT22;4998;51.024;13.828;2022-08-01T11:17:52;27.80;67.10
9919;DHT22;4998;51.024;13.828;2022-08-01T11:20:20;27.80;66.50
9919;DHT22;4998;51.024;13.828;2022-08-01T11:23:19;27.70;66.30
9919;DHT22;4998;51.024;13.828;2022-08-01T11:26:19;27.60;66.50
9919;DHT22;4998;51.024;13.828;2022-08-01T11:29:15;27.60;66.90
9919;DHT22;4998;51.024;13.828;2022-08-01T11:31:43;27.60;67.50
9919;DHT22;4998;51.024;13.828;2022-08-01T11:34:10;27.60;67.60
9919;DHT22;4998;51.024;13.828;2022-08-01T11:36:37;27.70;68.50
9919;DHT22;4998;51.024;13.828;2022-08-01T11:39:18;27.80;67.40
9919;DHT22;4998;51.024;13.828;2022-08-01T11:41:46;27.90;66.70
9919;DHT22;4998;51.024;13.828;2022-08-01T11:44:16;27.90;66.30
9919;DHT22;4998;51.024;13.828;2022-08-01T11:46:53;28.00;66.40
9919;DHT22;4998;51.024;13.828;2022-08-01T11:49:25;28.10;65.80
9919;DHT22;4998;51.024;13.828;2022-08-01T11:52:04;28.10;65.30
9919;DHT22;4998;51.024;13.828;2022-08-01T11:54:35;28.20;65.20
9919;DHT22;4998;51.024;13.828;2022-08-01T11:57:04;28.30;64.40
9919;DHT22;4998;51.024;13.828;2022-08-01T11:59:36;28.30;63.80
9919;DHT22;4998;51.024;13.828;2022-08-01T12:02:04;28.30;64.10
9919;DHT22;4998;51.024;13.828;2022-08-01T12:04:53;28.30;65.90
9919;DHT22;4998;51.024;13.828;2022-08-01T12:07:20;28.20;66.10
9919;DHT22;4998;51.024;13.828;2022-08-01T12:09:57;28.10;66.40
9919;DHT22;4998;51.024;13.828;2022-08-01T12:12:24;27.80;67.40
9919;DHT22;4998;51.024;13.828;2022-08-01T12:14:55;27.50;67.80
9919;DHT22;4998;51.024;13.828;2022-08-01T12:17:31;27.30;70.00
9919;DHT22;4998;51.024;13.828;2022-08-01T12:19:58;27.00;72.00
9919;DHT22;4998;51.024;13.828;2022-08-01T12:22:25;26.90;72.70
9919;DHT22;4998;51.024;13.828;2022-08-01T12:24:54;26.80;73.90
9919;DHT22;4998;51.024;13.828;2022-08-01T12:27:27;26.70;75.50
9919;DHT22;4998;51.024;13.828;2022-08-01T12:29:54;26.60;77.50
9919;DHT22;4998;51.024;13.828;2022-08-01T12:32:24;26.60;78.30
9919;DHT22;4998;51.024;13.828;2022-08-01T12:34:53;26.70;79.60
9919;DHT22;4998;51.024;13.828;2022-08-01T12:37:21;26.70;81.00
9919;DHT22;4998;51.024;13.828;2022-08-01T12:39:48;26.80;80.20
9919;DHT22;4998;51.024;13.828;2022-08-01T12:42:16;26.90;79.70
9919;DHT22;4998;51.024;13.828;2022-08-01T12:44:45;27.00;79.40
9919;DHT22;4998;51.024;13.828;2022-08-01T12:47:13;27.20;78.10
9919;DHT22;4998;51.024;13.828;2022-08-01T12:49:42;27.20;77.50
9919;DHT22;4998;51.024;13.828;2022-08-01T12:52:10;27.20;77.40
9919;DHT22;4998;51.024;13.828;2022-08-01T12:55:04;27.30;76.50
9919;DHT22;4998;51.024;13.828;2022-08-01T12:57:33;27.30;74.60
9919;DHT22;4998;51.024;13.828;2022-08-01T13:00:16;27.40;75.60
9919;DHT22;4998;51.024;13.828;2022-08-01T13:02:45;27.40;75.20
9919;DHT22;4998;51.024;13.828;2022-08-01T13:05:13;27.50;74.40
9919;DHT22;4998;51.024;13.828;2022-08-01T13:07:43;27.60;73.00
9919;DHT22;4998;51.024;13.828;2022-08-01T13:10:11;27.70;71.70
9919;DHT22;4998;51.024;13.828;2022-08-01T13:12:51;27.70;71.30
9919;DHT22;4998;51.024;13.828;2022-08-01T13:15:21;27.80;70.40
9919;DHT22;4998;51.024;13.828;2022-08-01T13:17:49;27.90;70.60
9919;DHT22;4998;51.024;13.828;2022-08-01T13:20:27;28.00;70.00
9919;DHT22;4998;51.024;13.828;2022-08-01T13:22:55;28.10;67.70
9919;DHT22;4998;51.024;13.828;2022-08-01T13:25:22;28.10;66.40
9919;DHT22;4998;51.024;13.828;2022-08-01T13:28:17;28.20;66.40
9919;DHT22;4998;51.024;13.828;2022-08-01T13:30:55;28.20;65.00
9919;DHT22;4998;51.024;13.828;2022-08-01T13:33:23;28.20;64.40
9919;DHT22;4998;51.024;13.828;2022-08-01T13:35:51;28.30;63.20
9919;DHT22;4998;51.024;13.828;2022-08-01T13:38:19;28.30;62.90
9919;DHT22;4998;51.024;13.828;2022-08-01T13:41:06;28.40;62.90
9919;DHT22;4998;51.024;13.828;2022-08-01T13:43:34;28.50;62.60
9919;DHT22;4998;51.024;13.828;2022-08-01T13:46:01;28.50;62.50
9919;DHT22;4998;51.024;13.828;2022-08-01T13:48:30;28.60;61.70
9919;DHT22;4998;51.024;13.828;2022-08-01T13:50:57;28.60;61.20
9919;DHT22;4998;51.024;13.828;2022-08-01T13:53:24;28.70;61.30
9919;DHT22;4998;51.024;13.828;2022-08-01T13:55:51;28.80;60.50
9919;DHT22;4998;51.024;13.828;2022-08-01T13:58:18;28.90;61.00
9919;DHT22;4998;51.024;13.828;2022-08-01T14:00:47;29.00;60.80
9919;DHT22;4998;51.024;13.828;2022-08-01T14:03:14;29.00;60.50
9919;DHT22;4998;51.024;13.828;2022-08-01T14:05:42;29.10;60.00
9919;DHT22;4998;51.024;13.828;2022-08-01T14:08:09;29.10;59.90
9919;DHT22;4998;51.024;13.828;2022-08-01T14:10:36;29.20;59.90
9919;DHT22;4998;51.024;13.828;2022-08-01T14:13:03;29.20;59.00
9919;DHT22;4998;51.024;13.828;2022-08-01T14:15:31;29.30;58.60
9919;DHT22;4998;51.024;13.828;2022-08-01T14:17:59;29.40;57.70
9919;DHT22;4998;51.024;13.828;2022-08-01T14:20:26;29.50;57.40
9919;DHT22;4998;51.024;13.828;2022-08-01T14:22:53;29.60;57.40
9919;DHT22;4998;51.024;13.828;2022-08-01T14:25:20;29.60;57.10
9919;DHT22;4998;51.024;13.828;2022-08-01T14:27:47;29.70;57.00
9919;DHT22;4998;51.024;13.828;2022-08-01T14:30:14;29.70;56.60
9919;DHT22;4998;51.024;13.828;2022-08-01T14:32:41;29.80;56.00
9919;DHT22;4998;51.024;13.828;2022-08-01T14:35:10;29.80;55.60
9919;DHT22;4998;51.024;13.828;2022-08-01T14:37:37;29.90;55.40
9919;DHT22;4998;51.024;13.828;2022-08-01T14:40:05;29.80;55.80
9919;DHT22;4998;51.024;13.828;2022-08-01T14:42:35;29.90;55.20
9919;DHT22;4998;51.024;13.828;2022-08-01T14:45:04;29.90;55.10
9919;DHT22;4998;51.024;13.828;2022-08-01T14:47:34;30.00;55.20
9919;DHT22;4998;51.024;13.828;2022-08-01T14:50:03;30.00;53.70
9919;DHT22;4998;51.024;13.828;2022-08-01T14:52:31;30.00;53.90
9919;DHT22;4998;51.024;13.828;2022-08-01T14:54:58;30.00;54.10
9919;DHT22;4998;51.024;13.828;2022-08-01T14:57:26;30.00;54.20
9919;DHT22;4998;51.024;13.828;2022-08-01T14:59:53;30.10;54.20
9919;DHT22;4998;51.024;13.828;2022-08-01T15:02:20;30.10;53.90
9919;DHT22;4998;51.024;13.828;2022-08-01T15:04:47;30.10;53.00
9919;DHT22;4998;51.024;13.828;2022-08-01T15:07:15;30.10;52.60
9919;DHT22;4998;51.024;13.828;2022-08-01T15:09:44;30.10;52.30
9919;DHT22;4998;51.024;13.828;2022-08-01T15:12:12;30.00;52.60
9919;DHT22;4998;51.024;13.828;2022-08-01T15:14:39;30.00;52.30
9919;DHT22;4998;51.024;13.828;2022-08-01T15:17:16;30.00;52.20
9919;DHT22;4998;51.024;13.828;2022-08-01T15:19:44;30.00;52.20
9919;DHT22;4998;51.024;13.828;2022-08-01T15:22:11;30.00;52.10
9919;DHT22;4998;51.024;13.828;2022-08-01T15:24:38;30.00;51.50
9919;DHT22;4998;51.024;13.828;2022-08-01T15:27:08;30.00;51.30
9919;DHT22;4998;51.024;13.828;2022-08-01T15:29:35;30.10;51.00
9919;DHT22;4998;51.024;13.828;2022-08-01T15:32:05;30.00;51.30
9919;DHT22;4998;51.024;13.828;2022-08-01T15:34:32;30.00;51.40
9919;DHT22;4998;51.024;13.828;2022-08-01T15:36:59;30.10;51.70
9919;DHT22;4998;51.024;13.828;2022-08-01T15:39:26;30.10;51.80
9919;DHT22;4998;51.024;13.828;2022-08-01T15:41:53;30.20;51.70
9919;DHT22;4998;51.024;13.828;2022-08-01T15:44:22;30.30;51.50
9919;DHT22;4998;51.024;13.828;2022-08-01T15:46:49;30.40;51.00
9919;DHT22;4998;51.024;13.828;2022-08-01T15:49:16;30.30;51.00
9919;DHT22;4998;51.024;13.828;2022-08-01T15:51:45;30.40;50.90
9919;DHT22;4998;51.024;13.828;2022-08-01T15:54:12;30.40;50.60
9919;DHT22;4998;51.024;13.828;2022-08-01T15:56:39;30.40;50.70
9919;DHT22;4998;51.024;13.828;2022-08-01T15:59:06;30.40;50.70
9919;DHT22;4998;51.024;13.828;2022-08-01T16:01:34;30.30;50.30